Aurora, OR

4:26 AM PST on November 24, 2014 (GMT -0800)
Mineral Springs View | Change Station
CLOSE
Current Station
Personal Weather Station
Location: Hubbard, OR
Elevation: 177 ft
Nearby Weather Stations

Elev 177 ft 45.19 °N, 122.81 °W | Updated 7 minutes ago

Fog
Fog
40.8 °F
Feels Like 41 °F
N
0.0
Wind Variable Wind from South

Today
High -- | Low -- °F
--% Chance of Precip.
Yesterday
High -- | Low -- °F
Precip. -- in
7:21 AM 4:33 PM
Waxing Crescent, 5% visible
Pressure 30.38 in
Visibility 0.2 miles
Clouds Few 1500 ft
Mostly Cloudy 2100 ft
Overcast 3900 ft
Windchill 41 °F
Dew Point 40 °F
Humidity 99%
Rainfall 0.00 in
Snow Depth Not available.
UV 0 out of 12
Pollen .10 out of 12
Air Quality Not available.
Flu Activity Not available.
METAR KUAO 241153Z AUTO 00000KT 1/4SM FG FEW015 BKN021 OVC039 06/05 A3038 RMK AO2 SLP288 70030 T00560050 10089 20044 50000

More Conditions Fewer Conditions

Pressure 30.38 in
Visibility 0.2 miles
Clouds Few 1500 ft
Mostly Cloudy 2100 ft
Overcast 3900 ft
Windchill 41 °F
Dew Point 40 °F
Humidity 99%
Rainfall 0.00 in
Snow Depth Not available.
UV 0 out of 12
Pollen .10 out of 12
Air Quality Not available.
Flu Activity Not available.
METAR KUAO 241153Z AUTO 00000KT 1/4SM FG FEW015 BKN021 OVC039 06/05 A3038 RMK AO2 SLP288 70030 T00560050 10089 20044 50000

More Conditions Fewer Conditions

10-Day Weather Forecast

Almanac

Astronomy

Nov. 24, 2014 Rise Set
Actual Time
Civil Twilight
Nautical Twilight
Astronomical Twilight
Moon
Length of Visible Light
Length of Day
Tomorrow will be .
, % of the Moon is Illuminated

Today's Extremes

State Highs State Lows

Community

WunderPhotos

Upload Photos

1,773,319 photos uploaded!

WunderBlogs® & News

Nearby

Air Quality

  Air Quality AQ Index Pollutant
Not available.

Snow Depth

Station Depth Elevation

Earthquake Activity

City Distance Mag. Time & Date
Minimum magnitude displayed is 2.5.

Coastal Water Temperatures

Place Temperature

Nearby Weather Stations